createdAt,value
2023-01-17T00:06:26.408Z,3.7
2023-01-17T00:16:27.522Z,3.6
2023-01-17T00:26:27.436Z,3.6
2023-01-17T00:36:28.262Z,3.5
2023-01-17T00:46:28.508Z,3.1
2023-01-17T00:56:28.994Z,3
2023-01-17T01:06:29.750Z,3.1
2023-01-17T01:16:30.806Z,3.3
2023-01-17T01:26:30.800Z,3.3
2023-01-17T01:36:30.991Z,3.3
2023-01-17T02:06:33.144Z,3.3
2023-01-17T02:16:33.833Z,3.3
2023-01-17T02:56:35.183Z,2
2023-01-17T03:16:37.208Z,1.5
2023-01-17T03:36:37.661Z,1
2023-01-17T03:56:39.338Z,1.3
2023-01-17T04:06:40.423Z,1.2
2023-01-17T04:16:40.663Z,1.3
2023-01-17T05:16:43.959Z,1.5
2023-01-17T05:26:44.151Z,1.5
2023-01-17T05:36:44.669Z,1.5
2023-01-17T05:56:46.224Z,1.5
2023-01-17T06:16:46.701Z,1.5
2023-01-17T06:36:47.374Z,1.5
2023-01-17T06:46:47.540Z,1.5
2023-01-17T06:56:48.547Z,1.4
2023-01-17T07:16:49.725Z,1.2
2023-01-17T07:26:49.854Z,1.2
2023-01-17T07:36:50.322Z,1.2
2023-01-17T07:46:50.429Z,1.3
2023-01-17T07:56:50.720Z,1.3
2023-01-17T08:06:51.474Z,1.3
2023-01-17T08:16:52.178Z,1.4
2023-01-17T08:26:52.633Z,1.3
2023-01-17T08:36:53.376Z,1.2
2023-01-17T08:46:53.692Z,1.2
2023-01-17T08:56:54.664Z,1.2
2023-01-17T09:06:55.769Z,1.3
2023-01-17T09:26:56.457Z,1.6
2023-01-17T09:36:56.774Z,1.7
2023-01-17T09:46:57.321Z,1.8
2023-01-17T09:56:57.527Z,2
2023-01-17T10:06:58.218Z,2
2023-01-17T10:16:58.439Z,2.1
2023-01-17T10:26:59.123Z,2.2
2023-01-17T10:36:59.546Z,2.4
2023-01-17T10:47:00.031Z,2.3
2023-01-17T10:57:00.476Z,2.4
2023-01-17T11:07:01.125Z,2.2
2023-01-17T11:27:02.224Z,2.7
2023-01-17T11:47:03.686Z,2.9
2023-01-17T11:57:04.335Z,3
2023-01-17T12:17:05.630Z,3
2023-01-17T12:27:06.426Z,3.2
2023-01-17T12:37:06.958Z,3.2
2023-01-17T12:47:07.208Z,3.1
2023-01-17T13:07:09.098Z,3.1
2023-01-17T13:17:10.094Z,3.2
2023-01-17T13:27:10.552Z,3.5
2023-01-17T13:57:12.862Z,4
2023-01-17T14:07:13.871Z,4.1
2023-01-17T14:17:14.781Z,4.2
2023-01-17T14:27:15.195Z,4
2023-01-17T14:37:15.994Z,3.9
2023-01-17T14:47:16.473Z,4
2023-01-17T14:57:17.580Z,3.8
2023-01-17T15:07:17.983Z,3.7
2023-01-17T15:17:18.763Z,3.5
2023-01-17T15:27:19.137Z,3.2
2023-01-17T15:37:19.356Z,2.8
2023-01-17T15:57:20.563Z,2.1
2023-01-17T16:07:21.103Z,1.6
2023-01-17T16:17:22.191Z,1.3
2023-01-17T16:27:22.714Z,1
2023-01-17T16:37:23.229Z,0.7
2023-01-17T16:57:25.100Z,0.2
2023-01-17T17:07:26.106Z,-0.1
2023-01-17T17:17:26.422Z,-0.3
2023-01-17T17:27:27.406Z,-0.5
2023-01-17T17:37:28.399Z,-0.5
2023-01-17T17:47:28.823Z,-0.9
2023-01-17T17:57:29.306Z,-0.8
2023-01-17T18:17:30.323Z,-1.2
2023-01-17T18:47:31.619Z,-1.5
2023-01-17T18:57:32.560Z,-1.4
2023-01-17T19:07:33.501Z,-1.7
2023-01-17T19:17:33.876Z,-1.8
2023-01-17T19:37:35.330Z,-1.7
2023-01-17T19:47:36.389Z,-1.8
2023-01-17T19:57:37.106Z,-2
2023-01-17T20:07:38.009Z,-2
2023-01-17T20:17:38.569Z,-2
2023-01-17T20:27:38.868Z,-2.2
2023-01-17T20:37:39.532Z,-2.4
2023-01-17T20:47:39.745Z,-2.3
2023-01-17T21:17:40.701Z,-2.2
2023-01-17T21:27:41.535Z,-2.5
2023-01-17T21:47:43.078Z,-2.6
2023-01-17T22:07:43.511Z,-2.9
2023-01-17T22:17:44.376Z,-3
2023-01-17T22:27:44.937Z,-3
2023-01-17T22:37:45.770Z,-3.3
2023-01-17T22:47:46.292Z,-3.3
2023-01-17T23:07:48.137Z,-3.4
2023-01-17T23:17:49.031Z,-3.4
2023-01-17T23:27:49.561Z,-3.5
2023-01-17T23:37:50.530Z,-3.4
2023-01-17T23:47:51.411Z,-3.4
2023-01-17T23:57:52.171Z,-3.6
